Time;durP1;ratioP1;P1;durP2;ratioP2;P2;SDS_P1;SDS_P2;PMS_P1;PMS_P2;Temp;Humidity;BMP_temperature;BMP_pressure;BME280_temperature;BME280_humidity;BME280_pressure;Samples;Min_cycle;Max_cycle;Signal;HPM_P1;HPM_P2
2022/07/10 00:00:50;;;;;;;30.55;6.72;;;13.30;99.90;;;;;;5006816;28;20486;-66
2022/07/10 00:03:17;;;;;;;25.92;5.72;;;13.30;99.90;;;;;;5005952;28;20483;-68
2022/07/10 00:05:44;;;;;;;23.15;5.50;;;13.30;99.90;;;;;;5003971;28;20045;-66
2022/07/10 00:08:12;;;;;;;29.67;5.07;;;13.30;99.90;;;;;;5005407;28;20010;-69
2022/07/10 00:10:39;;;;;;;22.48;5.40;;;13.30;99.90;;;;;;5005366;28;20029;-66
2022/07/10 00:13:06;;;;;;;26.88;6.05;;;13.30;99.90;;;;;;5004660;28;20025;-64
2022/07/10 00:15:33;;;;;;;22.60;4.40;;;13.20;99.90;;;;;;5004537;28;20108;-64
2022/07/10 00:18:01;;;;;;;28.52;5.95;;;13.10;99.90;;;;;;5004427;28;20044;-64
2022/07/10 00:20:28;;;;;;;24.15;5.45;;;13.10;99.90;;;;;;5004581;28;20822;-68
2022/07/10 00:22:55;;;;;;;27.85;4.93;;;13.10;99.90;;;;;;5004768;28;20026;-64
2022/07/10 00:25:23;;;;;;;24.95;5.05;;;13.00;99.90;;;;;;5004956;28;20054;-68
2022/07/10 00:27:50;;;;;;;28.05;4.22;;;12.90;99.90;;;;;;5005100;28;20506;-63
2022/07/10 00:30:17;;;;;;;27.60;5.50;;;12.90;99.90;;;;;;5003928;28;20030;-66
2022/07/10 00:32:44;;;;;;;26.98;5.40;;;12.80;99.90;;;;;;5005646;28;20038;-65
2022/07/10 00:35:12;;;;;;;33.38;5.95;;;12.80;99.90;;;;;;5005323;28;20014;-66
2022/07/10 00:37:40;;;;;;;29.25;5.03;;;12.90;99.90;;;;;;5005392;28;20309;-68
2022/07/10 00:40:07;;;;;;;38.75;7.35;;;12.90;99.90;;;;;;5005213;28;20108;-65
2022/07/10 00:42:35;;;;;;;36.72;7.22;;;13.00;99.90;;;;;;5004993;28;20184;-65
2022/07/10 00:45:02;;;;;;;31.70;7.55;;;13.10;99.90;;;;;;5004782;28;20014;-66
2022/07/10 00:47:29;;;;;;;32.83;6.15;;;13.20;99.90;;;;;;5005158;28;20059;-63
2022/07/10 00:49:57;;;;;;;26.27;4.85;;;13.20;99.90;;;;;;5005446;28;20113;-64
2022/07/10 00:52:24;;;;;;;29.38;5.75;;;13.20;99.90;;;;;;5004479;28;20033;-62
2022/07/10 00:54:52;;;;;;;24.05;4.63;;;13.30;99.90;;;;;;5005186;28;20494;-63
2022/07/10 00:57:21;;;;;;;25.38;4.93;;;13.30;99.90;;;;;;5003919;28;20119;-66
2022/07/10 00:59:49;;;;;;;19.33;5.00;;;13.50;99.90;;;;;;5004971;28;20033;-63
2022/07/10 01:02:17;;;;;;;18.73;3.75;;;13.60;99.90;;;;;;5004359;28;20034;-64
2022/07/10 01:04:45;;;;;;;17.40;3.95;;;13.70;99.90;;;;;;5005072;28;20049;-63
2022/07/10 01:07:15;;;;;;;18.65;3.97;;;13.70;99.90;;;;;;5004576;28;20509;-67
2022/07/10 01:09:43;;;;;;;16.95;4.20;;;13.70;99.90;;;;;;5004761;28;20121;-67
2022/07/10 01:12:12;;;;;;;26.35;5.13;;;13.60;99.90;;;;;;5004612;28;20009;-65
2022/07/10 01:14:41;;;;;;;22.30;4.05;;;13.80;99.90;;;;;;5003852;28;20844;-65
2022/07/10 01:17:10;;;;;;;19.48;4.40;;;13.90;99.90;;;;;;5004842;28;20026;-67
2022/07/10 01:19:37;;;;;;;25.27;5.68;;;14.00;99.90;;;;;;5004299;28;20036;-64
2022/07/10 01:22:05;;;;;;;25.80;4.85;;;14.10;99.90;;;;;;5004608;28;20041;-66
2022/07/10 01:24:32;;;;;;;15.23;3.13;;;14.10;99.90;;;;;;5004411;28;20041;-64
2022/07/10 01:27:00;;;;;;;14.57;2.97;;;14.10;99.90;;;;;;5004837;28;20029;-65
2022/07/10 01:29:29;;;;;;;15.32;3.13;;;14.10;99.90;;;;;;5003788;28;20018;-64
2022/07/10 01:31:56;;;;;;;15.27;2.95;;;14.10;99.90;;;;;;5004264;28;20455;-65
2022/07/10 01:34:24;;;;;;;14.23;2.38;;;14.20;99.90;;;;;;5004044;28;20163;-65
2022/07/10 01:36:51;;;;;;;17.48;2.97;;;14.30;99.90;;;;;;5004145;28;20061;-67
2022/07/10 01:39:18;;;;;;;15.27;3.58;;;14.30;99.90;;;;;;5004069;28;20029;-67
2022/07/10 01:41:46;;;;;;;15.63;4.78;;;14.40;99.90;;;;;;5003785;28;20092;-66
2022/07/10 01:44:13;;;;;;;14.38;3.70;;;14.40;99.90;;;;;;5003471;28;20029;-67
2022/07/10 01:46:48;;;;;;;13.80;2.90;;;14.40;99.90;;;;;;5004304;28;20104;-64
2022/07/10 01:49:16;;;;;;;12.43;3.42;;;14.40;99.90;;;;;;5003903;28;20029;-68
2022/07/10 01:51:44;;;;;;;17.50;4.50;;;14.40;99.90;;;;;;5003664;28;20100;-66
2022/07/10 01:54:11;;;;;;;14.85;3.30;;;14.30;99.90;;;;;;5004050;28;20500;-67
2022/07/10 01:56:39;;;;;;;16.88;3.22;;;14.30;99.90;;;;;;5004193;28;20053;-65
2022/07/10 01:59:06;;;;;;;14.23;2.95;;;14.20;99.90;;;;;;5004776;28;20018;-65
2022/07/10 02:01:34;;;;;;;15.55;3.83;;;14.10;99.90;;;;;;5003865;28;20044;-67
2022/07/10 02:06:50;;;;;;;14.23;3.53;;;14.00;99.90;;;;;;5003525;28;20072;-66
2022/07/10 02:09:17;;;;;;;15.00;2.95;;;14.30;99.90;;;;;;5003354;28;20025;-67
2022/07/10 02:11:44;;;;;;;12.82;2.92;;;14.60;99.90;;;;;;5003453;28;20370;-66
2022/07/10 02:14:12;;;;;;;15.88;3.28;;;14.90;99.90;;;;;;5003331;28;20022;-67
2022/07/10 02:16:39;;;;;;;13.77;2.45;;;15.30;99.90;;;;;;5003899;28;20026;-66
2022/07/10 02:19:06;;;;;;;14.52;3.22;;;15.50;99.90;;;;;;5003421;28;20096;-65
2022/07/10 02:21:33;;;;;;;19.70;4.63;;;15.80;99.90;;;;;;5003480;28;20054;-65
2022/07/10 02:24:01;;;;;;;18.42;5.47;;;16.10;99.90;;;;;;5003293;28;20057;-66
2022/07/10 02:26:28;;;;;;;19.40;7.07;;;16.30;99.90;;;;;;5003137;28;20026;-66
2022/07/10 02:28:55;;;;;;;25.10;6.25;;;16.30;99.90;;;;;;5002812;28;20057;-64
2022/07/10 02:31:23;;;;;;;28.60;9.27;;;16.20;99.90;;;;;;5002759;28;20032;-67
2022/07/10 02:33:50;;;;;;;23.77;7.50;;;16.20;99.90;;;;;;5002764;28;20025;-67
2022/07/10 02:36:17;;;;;;;18.48;5.05;;;16.30;99.90;;;;;;5003652;28;20080;-67
2022/07/10 02:38:44;;;;;;;21.58;4.75;;;16.20;99.90;;;;;;5003875;28;20026;-65
2022/07/10 02:41:12;;;;;;;21.52;5.28;;;16.30;99.90;;;;;;5002625;28;20100;-66
2022/07/10 02:43:39;;;;;;;20.95;4.72;;;16.80;99.90;;;;;;5002721;28;20076;-67
2022/07/10 02:46:07;;;;;;;17.08;3.25;;;17.20;99.90;;;;;;5002672;28;20061;-68
2022/07/10 02:48:34;;;;;;;10.57;2.47;;;17.20;99.90;;;;;;5002849;28;20061;-66
2022/07/10 02:51:01;;;;;;;13.38;2.95;;;17.00;99.90;;;;;;5003416;28;20017;-68
2022/07/10 02:53:28;;;;;;;12.63;2.60;;;16.70;99.90;;;;;;5002877;28;20034;-67
2022/07/10 02:55:56;;;;;;;14.43;2.80;;;16.50;99.90;;;;;;5002179;28;20050;-66
2022/07/10 02:58:23;;;;;;;16.08;2.53;;;16.40;99.90;;;;;;5002972;28;20033;-66
2022/07/10 03:00:50;;;;;;;13.32;2.80;;;16.40;99.90;;;;;;5003193;28;20084;-67
2022/07/10 03:03:18;;;;;;;13.05;3.03;;;16.20;99.90;;;;;;5003367;28;20097;-68
2022/07/10 03:05:46;;;;;;;15.27;3.63;;;16.10;99.90;;;;;;5002907;28;20018;-69
2022/07/10 03:08:13;;;;;;;11.57;1.90;;;16.20;99.90;;;;;;5002723;28;20026;-67
2022/07/10 03:10:41;;;;;;;12.10;2.33;;;16.20;99.90;;;;;;5002693;28;20022;-68
2022/07/10 03:13:08;;;;;;;11.50;2.28;;;16.30;99.90;;;;;;5002680;28;20537;-67
2022/07/10 03:15:35;;;;;;;14.00;2.10;;;16.40;99.90;;;;;;5002793;28;20383;-68
2022/07/10 03:18:03;;;;;;;12.85;3.70;;;16.40;99.90;;;;;;5002718;28;20026;-67
2022/07/10 03:20:30;;;;;;;13.20;2.58;;;16.50;99.90;;;;;;5002347;28;20034;-68
2022/07/10 03:22:58;;;;;;;11.52;2.33;;;16.40;99.90;;;;;;5002538;28;20176;-68
2022/07/10 03:25:25;;;;;;;5.95;2.10;;;16.10;99.90;;;;;;5003133;28;20038;-67
2022/07/10 03:27:52;;;;;;;11.05;2.50;;;15.90;99.90;;;;;;5002943;28;20018;-67
2022/07/10 03:30:19;;;;;;;8.68;1.73;;;15.70;99.90;;;;;;5002475;28;20037;-67
2022/07/10 03:32:47;;;;;;;9.07;2.22;;;15.50;99.90;;;;;;5002235;28;20045;-67
2022/07/10 03:35:14;;;;;;;8.50;2.60;;;15.40;99.90;;;;;;5002166;28;20038;-66
2022/07/10 03:37:42;;;;;;;6.75;2.00;;;15.30;99.90;;;;;;5004487;28;20050;-67
2022/07/10 03:40:10;;;;;;;7.18;2.10;;;15.40;99.90;;;;;;5006278;28;20030;-68
2022/07/10 03:42:37;;;;;;;11.55;2.25;;;15.50;99.90;;;;;;5004962;28;20022;-69
2022/07/10 03:45:05;;;;;;;13.55;2.60;;;15.70;99.90;;;;;;5005595;28;20475;-68
2022/07/10 03:47:32;;;;;;;16.50;3.85;;;15.70;99.90;;;;;;5006230;28;20030;-68
2022/07/10 03:50:00;;;;;;;10.35;2.80;;;16.00;99.90;;;;;;5006139;28;20084;-67
2022/07/10 03:52:27;;;;;;;7.47;2.40;;;16.20;99.90;;;;;;5006055;28;20549;-68
2022/07/10 03:54:57;;;;;;;10.82;2.58;;;16.20;99.90;;;;;;5006451;28;20036;-68
2022/07/10 04:00:11;;;;;;;11.95;2.55;;;15.90;99.90;;;;;;5005796;28;20068;-67
2022/07/10 04:02:39;;;;;;;13.88;3.05;;;15.80;99.90;;;;;;5005607;28;20149;-66
2022/07/10 04:05:07;;;;;;;15.38;3.78;;;15.50;99.90;;;;;;5005525;28;20033;-66
2022/07/10 04:07:38;;;;;;;13.90;3.60;;;15.20;99.90;;;;;;5005649;28;20049;-67
2022/07/10 04:10:06;;;;;;;18.58;4.97;;;14.90;99.90;;;;;;5005795;28;20412;-66
2022/07/10 04:12:33;;;;;;;16.30;4.05;;;14.70;99.90;;;;;;5004917;28;20170;-70
2022/07/10 04:15:00;;;;;;;14.65;2.78;;;14.50;99.90;;;;;;5004682;28;20092;-67
2022/07/10 04:17:29;;;;;;;12.55;3.63;;;14.50;99.90;;;;;;5006511;28;20100;-66
2022/07/10 04:19:56;;;;;;;10.93;3.20;;;14.40;99.90;;;;;;5005366;28;20053;-68
2022/07/10 04:22:23;;;;;;;19.38;6.43;;;14.40;99.90;;;;;;5005409;28;20437;-68
2022/07/10 04:24:51;;;;;;;13.15;5.28;;;14.40;99.90;;;;;;5005615;28;20029;-68
2022/07/10 04:27:19;;;;;;;17.13;5.53;;;14.50;99.90;;;;;;5003965;28;20034;-67
2022/07/10 04:29:46;;;;;;;14.55;5.43;;;14.50;99.90;;;;;;5005527;28;20030;-67
2022/07/10 04:32:14;;;;;;;11.80;4.32;;;14.60;99.90;;;;;;5005073;28;20076;-67
2022/07/10 04:34:41;;;;;;;8.13;3.05;;;14.60;99.90;;;;;;5004894;28;20501;-68
2022/07/10 04:37:09;;;;;;;8.65;3.80;;;14.50;99.90;;;;;;5005494;28;20268;-67
2022/07/10 04:39:40;;;;;;;10.82;2.63;;;14.40;99.90;;;;;;5006105;28;20120;-68
2022/07/10 04:42:08;;;;;;;14.05;3.60;;;14.30;99.90;;;;;;5005520;28;20026;-68
2022/07/10 04:44:36;;;;;;;11.43;3.65;;;14.10;99.90;;;;;;5006345;28;20382;-69
2022/07/10 04:47:04;;;;;;;8.70;2.10;;;13.90;99.90;;;;;;5005772;28;20042;-66
2022/07/10 04:49:31;;;;;;;8.65;2.05;;;13.70;99.90;;;;;;5003862;28;20053;-67
2022/07/10 04:51:59;;;;;;;8.27;3.10;;;13.50;99.90;;;;;;5004989;28;20088;-70
2022/07/10 04:54:27;;;;;;;7.28;2.33;;;13.40;99.90;;;;;;5005022;28;20048;-68
2022/07/10 04:56:54;;;;;;;10.60;2.55;;;13.40;99.90;;;;;;5003680;28;20046;-70
2022/07/10 04:59:21;;;;;;;9.13;2.33;;;13.30;99.90;;;;;;5004925;28;20026;-69
2022/07/10 05:01:49;;;;;;;12.93;4.10;;;13.30;99.90;;;;;;5003508;28;20044;-66
2022/07/10 05:04:16;;;;;;;8.20;2.30;;;13.40;99.90;;;;;;5004962;28;20385;-69
2022/07/10 05:06:43;;;;;;;12.82;2.03;;;13.40;99.90;;;;;;5004792;28;20501;-66
2022/07/10 05:09:13;;;;;;;12.70;1.90;;;13.40;99.90;;;;;;5005157;28;20454;-68
2022/07/10 05:11:41;;;;;;;12.77;3.15;;;13.40;99.90;;;;;;5003855;28;20394;-67
2022/07/10 05:14:08;;;;;;;10.63;2.20;;;13.50;99.90;;;;;;5003359;28;20128;-69
2022/07/10 05:16:36;;;;;;;8.23;2.65;;;13.60;99.90;;;;;;5004989;28;20058;-69
2022/07/10 05:19:03;;;;;;;10.32;3.67;;;13.70;99.90;;;;;;5004920;28;20017;-67
2022/07/10 05:21:30;;;;;;;16.98;7.88;;;13.90;99.90;;;;;;5004947;28;20030;-70
2022/07/10 05:23:57;;;;;;;14.63;7.07;;;14.00;99.90;;;;;;5004748;28;20101;-68
2022/07/10 05:26:25;;;;;;;19.15;8.07;;;13.90;99.90;;;;;;5004544;28;20029;-68
2022/07/10 05:28:55;;;;;;;16.77;7.70;;;13.90;99.90;;;;;;5004619;28;20014;-68
2022/07/10 05:31:22;;;;;;;14.75;7.38;;;14.00;99.90;;;;;;5003070;28;20022;-69
2022/07/10 05:33:50;;;;;;;15.10;5.43;;;14.00;99.90;;;;;;5004335;28;20030;-70
2022/07/10 05:36:17;;;;;;;18.58;5.65;;;13.90;99.90;;;;;;5004654;28;20514;-68
2022/07/10 05:38:45;;;;;;;12.82;4.05;;;13.90;99.90;;;;;;5004584;28;20451;-67
2022/07/10 05:41:12;;;;;;;15.43;4.40;;;13.80;99.90;;;;;;5004153;28;20035;-71
2022/07/10 05:43:39;;;;;;;11.73;4.38;;;13.90;99.90;;;;;;5002700;28;20101;-69
2022/07/10 05:46:06;;;;;;;15.93;4.90;;;13.80;99.90;;;;;;5004019;28;20026;-71
2022/07/10 05:48:38;;;;;;;13.25;3.13;;;13.80;99.90;;;;;;5004320;28;20049;-69
2022/07/10 05:51:05;;;;;;;11.63;3.05;;;13.80;99.90;;;;;;5003845;28;20109;-70
2022/07/10 05:53:33;;;;;;;8.18;3.15;;;13.70;99.90;;;;;;5003211;28;20109;-67
2022/07/10 05:56:03;;;;;;;8.10;2.30;;;13.70;99.90;;;;;;5002970;28;20049;-70
2022/07/10 05:58:30;;;;;;;12.25;1.70;;;13.80;99.90;;;;;;5003228;28;20018;-71
2022/07/10 06:00:58;;;;;;;8.43;2.35;;;13.80;99.90;;;;;;5002513;28;20698;-67
2022/07/10 06:03:26;;;;;;;8.82;2.47;;;13.90;99.90;;;;;;5002763;28;20022;-68
2022/07/10 06:05:53;;;;;;;16.15;4.25;;;13.90;99.90;;;;;;5002695;28;20036;-68
2022/07/10 06:08:23;;;;;;;9.43;3.22;;;13.80;99.90;;;;;;5004400;28;20026;-70
2022/07/10 06:10:53;;;;;;;12.05;3.65;;;13.80;99.90;;;;;;5004925;28;20495;-70
2022/07/10 06:13:21;;;;;;;11.73;4.22;;;13.70;99.90;;;;;;5004218;28;20022;-71
2022/07/10 06:15:48;;;;;;;15.18;5.38;;;13.60;99.90;;;;;;5003401;28;20033;-70
2022/07/10 06:18:15;;;;;;;10.18;3.63;;;13.60;99.90;;;;;;5002555;28;20022;-67
2022/07/10 06:20:43;;;;;;;12.30;3.75;;;13.60;99.90;;;;;;5003901;28;20554;-68
2022/07/10 06:23:10;;;;;;;11.77;3.08;;;13.40;99.90;;;;;;5002427;28;20034;-69
2022/07/10 06:25:38;;;;;;;15.60;3.50;;;13.40;99.90;;;;;;5002686;28;20022;-69
2022/07/10 06:28:05;;;;;;;9.52;2.35;;;13.30;99.90;;;;;;5003940;28;20129;-69
2022/07/10 06:30:32;;;;;;;8.95;2.92;;;13.30;99.90;;;;;;5003608;28;20319;-69
2022/07/10 06:33:00;;;;;;;11.73;3.05;;;13.20;99.90;;;;;;5003972;28;20037;-68
2022/07/10 06:35:28;;;;;;;7.43;2.20;;;13.20;99.90;;;;;;5002284;28;20693;-70
2022/07/10 06:37:55;;;;;;;14.02;4.75;;;13.10;99.90;;;;;;5004290;28;20038;-66
2022/07/10 06:40:23;;;;;;;14.65;4.47;;;13.00;99.90;;;;;;5003652;28;20037;-70
2022/07/10 06:42:53;;;;;;;12.27;3.60;;;13.00;99.90;;;;;;5003892;28;20724;-67
2022/07/10 06:45:23;;;;;;;11.23;3.00;;;12.90;99.90;;;;;;5002300;28;20173;-70
2022/07/10 06:48:00;;;;;;;9.23;4.38;;;13.00;99.90;;;;;;5003811;28;20022;-67
2022/07/10 06:50:34;;;;;;;13.90;5.60;;;12.90;99.90;;;;;;5002390;28;20049;-70
2022/07/10 06:53:03;;;;;;;13.98;3.83;;;13.00;99.90;;;;;;4987063;28;20089;-67
2022/07/10 06:55:31;;;;;;;12.57;3.50;;;12.90;99.90;;;;;;5003530;28;20135;-69
2022/07/10 06:57:59;;;;;;;9.45;3.95;;;12.90;99.90;;;;;;5002804;28;20121;-69
2022/07/10 07:00:27;;;;;;;14.27;6.57;;;13.00;99.90;;;;;;5003733;28;20112;-68
2022/07/10 07:02:55;;;;;;;24.65;6.60;;;13.00;99.90;;;;;;5003825;28;20029;-67
2022/07/10 07:05:22;;;;;;;20.27;6.10;;;13.00;99.90;;;;;;5001788;28;20434;-66
2022/07/10 07:07:50;;;;;;;21.45;6.47;;;12.90;99.90;;;;;;5003003;28;20095;-70
2022/07/10 07:10:17;;;;;;;20.48;6.40;;;12.80;99.90;;;;;;5003335;28;20025;-69
2022/07/10 07:12:45;;;;;;;14.65;4.30;;;12.70;99.90;;;;;;5004907;28;20018;-66
2022/07/10 07:15:15;;;;;;;16.15;5.22;;;12.60;99.90;;;;;;5006064;28;20030;-66
2022/07/10 07:23:31;;;;;;;14.18;3.53;;;12.40;99.90;;;;;;5008440;28;20382;-70
2022/07/10 07:25:58;;;;;;;14.82;3.08;;;12.50;99.90;;;;;;5007827;28;20101;-68
2022/07/10 07:28:28;;;;;;;12.05;2.53;;;12.50;99.90;;;;;;5005991;28;20022;-68
2022/07/10 07:30:55;;;;;;;17.17;4.20;;;12.50;99.90;;;;;;5005264;28;20880;-68
2022/07/10 07:33:23;;;;;;;11.50;3.05;;;12.50;99.90;;;;;;5007065;28;20022;-68
2022/07/10 07:35:50;;;;;;;17.13;6.13;;;12.40;99.90;;;;;;5005484;28;20505;-65
2022/07/10 07:38:18;;;;;;;17.65;5.47;;;12.30;99.90;;;;;;5007652;28;20032;-66
2022/07/10 07:40:45;;;;;;;21.73;9.75;;;12.30;99.90;;;;;;5006472;28;20030;-66
2022/07/10 07:43:13;;;;;;;30.90;17.77;;;12.30;99.90;;;;;;5004841;28;20033;-66
2022/07/10 07:45:40;;;;;;;90.40;55.22;;;12.30;99.90;;;;;;5004978;28;20052;-64
2022/07/10 07:48:08;;;;;;;59.35;33.08;;;12.30;99.90;;;;;;5006953;28;20032;-67
2022/07/10 07:50:37;;;;;;;27.80;9.20;;;12.40;99.90;;;;;;5006171;28;20061;-65
2022/07/10 07:53:06;;;;;;;18.33;5.72;;;12.30;99.90;;;;;;5007079;28;20026;-64
2022/07/10 07:55:34;;;;;;;16.42;5.05;;;12.40;99.90;;;;;;5006307;28;20049;-65
2022/07/10 07:58:03;;;;;;;16.75;4.70;;;12.30;99.90;;;;;;5006455;28;20229;-66
2022/07/10 08:00:32;;;;;;;12.55;3.80;;;12.40;99.90;;;;;;5006514;28;20348;-65
2022/07/10 08:03:00;;;;;;;11.57;3.22;;;12.30;99.90;;;;;;5006357;28;20475;-68
2022/07/10 08:05:28;;;;;;;13.88;4.28;;;12.40;99.90;;;;;;5006141;28;20037;-64
2022/07/10 08:07:58;;;;;;;15.38;4.50;;;12.40;99.90;;;;;;5006320;28;20770;-68
2022/07/10 08:10:27;;;;;;;14.60;5.80;;;12.30;99.90;;;;;;5004997;28;20482;-64
2022/07/10 08:12:54;;;;;;;12.55;3.70;;;12.30;99.90;;;;;;5004588;28;20030;-65
2022/07/10 08:15:23;;;;;;;11.73;3.35;;;12.30;99.90;;;;;;5005134;28;20037;-66
2022/07/10 08:17:52;;;;;;;11.15;4.18;;;12.40;99.90;;;;;;5005985;28;20025;-69
2022/07/10 08:20:21;;;;;;;15.75;5.78;;;12.30;99.90;;;;;;5006203;28;20119;-66
2022/07/10 08:22:53;;;;;;;13.38;5.15;;;12.30;99.90;;;;;;5005637;28;20057;-65
2022/07/10 08:25:21;;;;;;;15.23;4.65;;;12.20;99.90;;;;;;5006262;28;20022;-69
2022/07/10 08:27:49;;;;;;;11.32;5.60;;;12.20;99.90;;;;;;5004158;28;20053;-66
2022/07/10 08:30:19;;;;;;;16.60;8.20;;;12.20;99.90;;;;;;5005967;28;20088;-64
2022/07/10 08:32:47;;;;;;;9.13;4.60;;;12.20;99.90;;;;;;5004739;28;20060;-66
2022/07/10 08:35:15;;;;;;;10.70;4.18;;;12.20;99.90;;;;;;5005175;28;20054;-68
2022/07/10 08:37:44;;;;;;;19.58;6.25;;;12.20;99.90;;;;;;5005107;28;20509;-65
2022/07/10 08:40:14;;;;;;;23.35;10.63;;;12.20;99.90;;;;;;5004939;28;20029;-68
2022/07/10 08:42:44;;;;;;;16.83;7.68;;;12.20;99.90;;;;;;5004521;28;20034;-65
2022/07/10 08:45:12;;;;;;;12.40;6.57;;;12.10;99.90;;;;;;5004443;28;20021;-65
2022/07/10 08:47:46;;;;;;;16.60;8.30;;;12.20;99.90;;;;;;5005939;28;20033;-64
2022/07/10 08:50:16;;;;;;;10.13;5.90;;;12.20;99.90;;;;;;5006098;28;20034;-67
2022/07/10 08:53:08;;;;;;;17.83;7.05;;;12.20;99.90;;;;;;5005892;28;20030;-66
2022/07/10 08:55:37;;;;;;;19.33;6.90;;;12.10;99.90;;;;;;5005656;28;20046;-66
2022/07/10 08:58:04;;;;;;;15.50;7.70;;;12.10;99.90;;;;;;5005436;28;20053;-66
2022/07/10 09:00:35;;;;;;;14.23;7.72;;;12.10;99.90;;;;;;5005789;28;20171;-66
2022/07/10 09:03:03;;;;;;;23.15;9.63;;;12.10;99.90;;;;;;5005597;28;20048;-66
2022/07/10 09:05:30;;;;;;;18.45;10.65;;;12.10;99.90;;;;;;5005539;28;20129;-65
2022/07/10 09:08:00;;;;;;;17.27;6.97;;;12.00;99.90;;;;;;5005282;28;20021;-69
2022/07/10 09:10:28;;;;;;;16.67;6.97;;;12.10;99.90;;;;;;5004070;28;20026;-68
2022/07/10 09:13:01;;;;;;;18.23;7.07;;;12.10;99.90;;;;;;5004844;28;20463;-69
2022/07/10 09:15:32;;;;;;;20.27;8.98;;;12.00;99.90;;;;;;5005595;28;20022;-69
2022/07/10 09:18:06;;;;;;;14.20;5.32;;;12.00;99.90;;;;;;5003614;28;20858;-66
2022/07/10 09:20:39;;;;;;;20.90;4.50;;;12.10;99.90;;;;;;5005541;28;20446;-70
2022/07/10 09:23:20;;;;;;;20.20;3.40;;;12.10;99.90;;;;;;5005238;28;20022;-66
2022/07/10 09:25:52;;;;;;;13.23;3.35;;;12.10;99.90;;;;;;5005093;28;20064;-67
2022/07/10 09:28:23;;;;;;;15.90;3.67;;;12.10;99.90;;;;;;5005239;28;20022;-70
2022/07/10 09:30:51;;;;;;;20.88;6.57;;;12.20;99.90;;;;;;5003542;28;20030;-69
2022/07/10 09:33:30;;;;;;;15.00;4.90;;;12.20;99.90;;;;;;5005116;28;20459;-66
2022/07/10 09:36:09;;;;;;;15.00;4.00;;;12.20;99.90;;;;;;5002440;28;20029;-70
2022/07/10 09:38:46;;;;;;;13.80;5.13;;;12.20;99.90;;;;;;5005560;28;20033;-68
2022/07/10 09:41:27;;;;;;;13.10;2.70;;;12.20;99.90;;;;;;5003262;28;20662;-69
2022/07/10 09:44:07;;;;;;;12.38;3.33;;;12.20;99.90;;;;;;5003603;28;20030;-69
2022/07/10 09:46:39;;;;;;;17.20;4.65;;;12.20;99.90;;;;;;5003553;28;20033;-67
2022/07/10 09:49:11;;;;;;;15.67;3.47;;;12.10;99.90;;;;;;5004984;28;20029;-68
2022/07/10 09:51:43;;;;;;;11.25;2.92;;;12.10;99.90;;;;;;5003879;28;20275;-66
2022/07/10 09:54:12;;;;;;;16.48;4.60;;;12.10;99.90;;;;;;5004925;28;20021;-68
2022/07/10 09:56:41;;;;;;;15.32;5.47;;;12.10;99.90;;;;;;5005114;28;20490;-70
2022/07/10 09:59:14;;;;;;;19.65;4.18;;;12.20;99.90;;;;;;5004625;28;20030;-67
2022/07/10 10:01:50;;;;;;;11.93;3.95;;;12.20;99.90;;;;;;5003575;28;20658;-66
2022/07/10 10:04:21;;;;;;;20.15;4.43;;;12.20;99.90;;;;;;5003852;28;20101;-66
2022/07/10 10:06:53;;;;;;;15.85;4.32;;;12.30;99.90;;;;;;5004133;28;20055;-70
2022/07/10 10:09:41;;;;;;;15.65;4.57;;;12.20;99.90;;;;;;5003040;28;20045;-69
2022/07/10 10:12:27;;;;;;;13.43;3.92;;;12.30;99.90;;;;;;5002600;28;20443;-65
2022/07/10 10:14:57;;;;;;;11.43;3.38;;;12.20;99.90;;;;;;5003463;28;20041;-68
2022/07/10 10:17:27;;;;;;;12.32;3.28;;;12.20;99.90;;;;;;4986852;28;20081;-66
2022/07/10 10:22:46;;;;;;;12.48;4.40;;;12.20;99.90;;;;;;5004938;28;20060;-68
2022/07/10 10:25:19;;;;;;;14.50;6.47;;;12.10;99.90;;;;;;5002879;28;20671;-69
2022/07/10 10:27:46;;;;;;;16.70;4.65;;;12.10;99.90;;;;;;5004574;28;20033;-69
2022/07/10 10:30:13;;;;;;;11.98;4.63;;;12.10;99.90;;;;;;5002937;28;20523;-66
2022/07/10 10:32:41;;;;;;;17.95;7.18;;;12.00;99.90;;;;;;5004149;28;20033;-68
2022/07/10 10:35:15;;;;;;;17.13;4.53;;;12.00;99.90;;;;;;5003330;28;20048;-69
2022/07/10 10:37:44;;;;;;;15.02;8.93;;;12.10;99.90;;;;;;5004158;28;20054;-62
2022/07/10 10:40:31;;;;;;;11.35;3.78;;;12.00;99.90;;;;;;5003418;28;20034;-63
2022/07/10 10:43:16;;;;;;;10.45;3.38;;;12.00;99.90;;;;;;5003605;28;20053;-63
2022/07/10 10:45:44;;;;;;;10.52;2.65;;;12.00;99.90;;;;;;5003086;28;20029;-66
2022/07/10 10:48:17;;;;;;;13.48;3.10;;;12.00;99.90;;;;;;5003139;28;20026;-66
2022/07/10 10:50:46;;;;;;;;;;;12.00;99.90;;;;;;5003977;28;20026;-68
2022/07/10 10:53:21;;;;;;;14.43;3.92;;;12.00;99.90;;;;;;5003364;28;19905;-67
2022/07/10 10:56:11;;;;;;;15.77;4.38;;;12.00;99.90;;;;;;5001686;28;20089;-67
2022/07/10 10:58:46;;;;;;;15.85;9.65;;;11.90;99.90;;;;;;5003456;28;20136;-67
2022/07/10 11:01:25;;;;;;;19.20;7.50;;;11.90;99.90;;;;;;5002820;28;20058;-69
2022/07/10 11:04:08;;;;;;;16.60;4.50;;;11.80;99.90;;;;;;5003308;28;20022;-67
2022/07/10 11:06:46;;;;;;;19.13;11.52;;;11.80;99.90;;;;;;5003451;28;20101;-65
2022/07/10 11:09:23;;;;;;;16.92;6.80;;;11.80;99.90;;;;;;5003089;28;20034;-64
2022/07/10 11:12:03;;;;;;;25.08;5.93;;;11.70;99.90;;;;;;5003163;28;20125;-64
2022/07/10 11:14:32;;;;;;;13.63;4.38;;;11.70;99.90;;;;;;5002837;28;20490;-63
2022/07/10 11:17:00;;;;;;;14.95;7.03;;;11.60;99.90;;;;;;5003057;28;20716;-64
2022/07/10 11:19:29;;;;;;;16.05;6.97;;;11.60;99.90;;;;;;5003140;28;20530;-65
2022/07/10 11:22:29;;;;;;;18.40;6.78;;;11.60;99.90;;;;;;5003176;28;20081;-64
2022/07/10 11:25:15;;;;;;;15.48;7.13;;;11.50;99.90;;;;;;5003330;28;20018;-67
2022/07/10 11:28:08;;;;;;;14.20;5.78;;;11.40;99.90;;;;;;5003289;28;20033;-66
2022/07/10 11:31:04;;;;;;;12.18;4.63;;;11.40;99.90;;;;;;5002578;28;20022;-67
2022/07/10 11:33:42;;;;;;;16.92;7.75;;;11.40;99.90;;;;;;5001612;28;20048;-67
2022/07/10 11:36:25;;;;;;;18.90;9.73;;;11.40;99.90;;;;;;5002919;28;20022;-68
2022/07/10 11:39:07;;;;;;;21.52;11.98;;;11.30;99.90;;;;;;5003345;28;20045;-67
2022/07/10 11:41:43;;;;;;;22.60;11.83;;;11.40;99.90;;;;;;5002920;28;20041;-67
2022/07/10 11:44:18;;;;;;;17.77;7.60;;;11.30;99.90;;;;;;5003338;28;20112;-67
2022/07/10 11:46:48;;;;;;;11.70;5.38;;;11.40;99.90;;;;;;5003372;28;20018;-67
2022/07/10 11:49:17;;;;;;;9.95;4.22;;;11.30;99.90;;;;;;5003116;28;20025;-69
2022/07/10 11:51:44;;;;;;;14.32;5.70;;;11.30;99.90;;;;;;5003443;28;20462;-68
2022/07/10 11:54:15;;;;;;;12.00;5.18;;;11.40;99.90;;;;;;5003321;28;20038;-70
2022/07/10 11:56:48;;;;;;;18.85;8.52;;;11.30;99.90;;;;;;5001642;28;20042;-68
2022/07/10 11:59:16;;;;;;;17.58;7.85;;;11.40;99.90;;;;;;5005627;28;20060;-66
2022/07/10 12:01:49;;;;;;;11.82;6.80;;;11.30;99.90;;;;;;5006373;28;20117;-67
2022/07/10 12:04:23;;;;;;;17.75;6.53;;;11.30;99.90;;;;;;5006706;28;20101;-66
2022/07/10 12:06:51;;;;;;;12.88;6.55;;;11.30;99.90;;;;;;5006231;28;20032;-68
2022/07/10 12:09:21;;;;;;;12.23;6.35;;;11.30;99.90;;;;;;5006242;28;20379;-67
2022/07/10 12:12:06;;;;;;;10.07;5.50;;;11.20;99.90;;;;;;5006579;28;20050;-66
2022/07/10 12:14:34;;;;;;;13.13;6.65;;;11.20;99.90;;;;;;5006064;28;20057;-68
2022/07/10 12:17:10;;;;;;;16.63;7.65;;;11.20;99.90;;;;;;5006320;28;20048;-65
2022/07/10 12:19:40;;;;;;;12.82;7.15;;;11.20;99.90;;;;;;5005542;28;20383;-67
2022/07/10 12:22:09;;;;;;;13.80;7.60;;;11.10;99.90;;;;;;5005754;28;20045;-66
2022/07/10 12:24:36;;;;;;;15.75;10.15;;;11.10;99.90;;;;;;5005924;28;20096;-65
2022/07/10 12:27:04;;;;;;;15.35;7.05;;;11.20;99.90;;;;;;5006135;28;20030;-67
2022/07/10 12:29:31;;;;;;;11.30;6.07;;;11.20;99.90;;;;;;5005594;28;20026;-67
2022/07/10 12:32:03;;;;;;;15.60;7.93;;;11.20;99.90;;;;;;5005807;28;20498;-67
2022/07/10 12:34:35;;;;;;;20.25;6.68;;;11.20;99.90;;;;;;5005306;28;20084;-67
2022/07/10 12:37:13;;;;;;;19.03;14.30;;;11.20;99.90;;;;;;5006279;28;20104;-63
2022/07/10 12:39:54;;;;;;;16.08;10.38;;;11.20;99.90;;;;;;5005519;28;20022;-64
2022/07/10 12:42:32;;;;;;;19.08;8.10;;;11.20;99.90;;;;;;5005246;28;20113;-64
2022/07/10 12:45:12;;;;;;;20.67;7.35;;;11.20;99.90;;;;;;5005561;28;20029;-64
2022/07/10 12:47:50;;;;;;;18.27;9.43;;;11.20;99.90;;;;;;5005302;28;20028;-66
2022/07/10 12:50:18;;;;;;;13.13;7.57;;;11.20;99.90;;;;;;5005454;28;20084;-64
2022/07/10 12:52:46;;;;;;;16.35;8.07;;;11.30;99.90;;;;;;5004782;28;20014;-65
2022/07/10 12:55:23;;;;;;;14.45;7.13;;;11.30;99.90;;;;;;5005238;28;20022;-65
2022/07/10 12:58:05;;;;;;;15.20;7.00;;;11.40;99.90;;;;;;5005167;28;20034;-64
2022/07/10 13:00:43;;;;;;;9.85;5.47;;;11.30;99.90;;;;;;5004450;28;20145;-64
2022/07/10 13:03:17;;;;;;;13.82;6.40;;;11.20;99.90;;;;;;5005122;28;20558;-66
2022/07/10 13:05:45;;;;;;;16.80;6.93;;;11.20;99.90;;;;;;5005049;28;20097;-65